createdAt,value
2019-03-10T00:01:32.817Z,54.90
2019-03-10T00:03:08.187Z,54.90
2019-03-10T00:04:44.693Z,54.90
2019-03-10T00:06:20.332Z,54.90
2019-03-10T00:07:55.694Z,54.90
2019-03-10T00:09:32.138Z,54.90
2019-03-10T00:11:07.506Z,54.90
2019-03-10T00:12:42.863Z,54.90
2019-03-10T00:14:18.227Z,54.90
2019-03-10T00:15:53.674Z,54.80
2019-03-10T00:17:29.307Z,54.80
2019-03-10T00:19:04.682Z,54.80
2019-03-10T00:20:40.060Z,54.90
2019-03-10T00:22:15.828Z,55.00
2019-03-10T00:23:51.197Z,55.00
2019-03-10T00:25:26.559Z,55.00
2019-03-10T00:27:01.928Z,55.10
2019-03-10T00:28:37.295Z,55.00
2019-03-10T00:30:17.931Z,55.00
2019-03-10T00:31:53.540Z,55.10
2019-03-10T00:33:28.903Z,55.10
2019-03-10T00:35:05.913Z,55.10
2019-03-10T00:36:41.281Z,55.10
2019-03-10T00:38:16.642Z,55.10
2019-03-10T00:40:05.229Z,55.00
2019-03-10T00:42:12.887Z,55.00
2019-03-10T00:44:27.073Z,55.10
2019-03-10T00:46:19.049Z,55.00
2019-03-10T00:48:30.541Z,55.00
2019-03-10T00:50:37.011Z,55.10
2019-03-10T00:52:31.274Z,55.10
2019-03-10T00:54:06.641Z,55.20
2019-03-10T00:55:42.007Z,55.30
2019-03-10T00:57:17.439Z,55.40
2019-03-10T00:58:52.808Z,55.40
2019-03-10T01:00:28.247Z,55.40
2019-03-10T01:02:03.611Z,55.60
2019-03-10T01:03:38.964Z,55.60
2019-03-10T01:05:14.341Z,55.60
2019-03-10T01:06:49.873Z,55.70
2019-03-10T01:08:25.403Z,55.70
2019-03-10T01:10:00.807Z,55.70
2019-03-10T01:11:36.203Z,56.40
2019-03-10T01:13:11.570Z,55.80
2019-03-10T01:14:47.246Z,55.80
2019-03-10T01:16:23.144Z,55.90
2019-03-10T01:17:59.740Z,55.90
2019-03-10T01:19:35.779Z,56.00
2019-03-10T01:21:12.591Z,56.20
2019-03-10T01:22:49.397Z,56.20
2019-03-10T01:24:24.761Z,56.40
2019-03-10T01:26:00.881Z,56.40
2019-03-10T01:27:36.251Z,56.60
2019-03-10T01:29:11.623Z,56.60
2019-03-10T01:30:57.639Z,56.70
2019-03-10T01:32:49.158Z,56.60
2019-03-10T01:35:07.074Z,56.60
2019-03-10T01:36:42.449Z,56.70
2019-03-10T01:38:17.805Z,56.70
2019-03-10T01:39:53.182Z,56.90
2019-03-10T01:41:28.615Z,56.80
2019-03-10T01:43:03.972Z,56.90
2019-03-10T01:44:39.347Z,56.90
2019-03-10T01:46:15.965Z,57.00
2019-03-10T01:47:51.332Z,57.00
2019-03-10T01:49:26.775Z,57.00
2019-03-10T01:51:02.148Z,57.00
2019-03-10T01:52:37.509Z,57.00
2019-03-10T01:54:13.982Z,57.00
2019-03-10T01:55:50.522Z,57.00
2019-03-10T01:57:25.886Z,57.10
2019-03-10T01:59:01.250Z,57.20
2019-03-10T02:00:36.689Z,57.30
2019-03-10T02:02:12.062Z,57.30
2019-03-10T02:03:47.428Z,57.30
2019-03-10T02:05:22.804Z,57.30
2019-03-10T02:06:58.171Z,57.40
2019-03-10T02:08:33.600Z,57.40
2019-03-10T02:10:12.125Z,57.50
2019-03-10T02:11:47.508Z,57.50
2019-03-10T02:13:22.869Z,57.60
2019-03-10T02:14:58.352Z,57.70
2019-03-10T02:16:34.026Z,57.80
2019-03-10T02:18:09.394Z,57.80
2019-03-10T02:19:44.834Z,57.80
2019-03-10T02:21:20.209Z,57.90
2019-03-10T02:22:55.637Z,57.90
2019-03-10T02:24:31.002Z,58.00
2019-03-10T02:26:06.378Z,58.00
2019-03-10T02:27:41.736Z,58.00
2019-03-10T02:29:17.097Z,58.00
2019-03-10T02:30:52.683Z,58.10
2019-03-10T02:32:28.053Z,58.10
2019-03-10T02:34:03.693Z,58.00
2019-03-10T02:35:40.131Z,58.10
2019-03-10T02:37:15.511Z,58.00
2019-03-10T02:38:51.231Z,58.00
2019-03-10T02:40:26.605Z,58.00
2019-03-10T02:42:02.956Z,57.90
2019-03-10T02:43:38.337Z,58.00
2019-03-10T02:45:13.785Z,58.00
2019-03-10T02:46:49.162Z,57.90
2019-03-10T02:48:25.544Z,57.80
2019-03-10T02:50:00.939Z,57.80
2019-03-10T02:51:36.308Z,57.80
2019-03-10T02:53:12.005Z,57.80
2019-03-10T02:54:47.653Z,57.80
2019-03-10T02:56:23.042Z,57.70
2019-03-10T02:57:58.416Z,57.80
2019-03-10T02:59:34.062Z,57.80
2019-03-10T03:01:09.710Z,57.70
2019-03-10T03:02:45.084Z,57.60
2019-03-10T03:04:20.484Z,57.60
2019-03-10T03:05:55.938Z,57.60
2019-03-10T03:07:31.334Z,57.50
2019-03-10T03:09:07.188Z,57.80
2019-03-10T03:10:44.161Z,57.50
2019-03-10T03:12:19.532Z,57.50
2019-03-10T03:13:55.512Z,57.50
2019-03-10T03:15:30.897Z,57.60
2019-03-10T03:17:06.285Z,57.50
2019-03-10T03:18:41.661Z,57.60
2019-03-10T03:20:17.046Z,57.60
2019-03-10T03:21:52.876Z,57.60
2019-03-10T03:23:28.586Z,57.60
2019-03-10T03:25:05.608Z,57.60
2019-03-10T03:26:41.008Z,57.60
2019-03-10T03:28:16.401Z,57.60
2019-03-10T03:29:51.768Z,57.60
2019-03-10T03:31:28.399Z,58.30
2019-03-10T03:33:03.771Z,57.60
2019-03-10T03:34:39.254Z,57.60
2019-03-10T03:36:22.087Z,57.60
2019-03-10T03:37:57.468Z,57.60
2019-03-10T03:39:34.352Z,57.70
2019-03-10T03:41:13.711Z,57.70
2019-03-10T03:42:49.083Z,57.80
2019-03-10T03:44:26.664Z,57.80
2019-03-10T03:46:02.067Z,57.80
2019-03-10T03:47:37.420Z,57.80
2019-03-10T03:49:12.790Z,57.90
2019-03-10T03:50:48.528Z,57.80
2019-03-10T03:52:24.881Z,57.80
2019-03-10T03:54:00.259Z,57.80
2019-03-10T03:55:35.632Z,57.80
2019-03-10T03:57:11.022Z,57.80
2019-03-10T03:58:46.737Z,57.80
2019-03-10T04:00:22.113Z,57.80
2019-03-10T04:02:02.567Z,57.90
2019-03-10T04:03:37.941Z,58.00
2019-03-10T04:05:14.626Z,57.90
2019-03-10T04:06:50.370Z,57.90
2019-03-10T04:08:25.742Z,57.90
2019-03-10T04:10:01.117Z,58.00
2019-03-10T04:11:37.569Z,58.10
2019-03-10T04:13:12.950Z,58.70
2019-03-10T04:14:48.479Z,58.00
2019-03-10T04:16:23.952Z,58.10
2019-03-10T04:17:59.336Z,58.00
2019-03-10T04:19:34.701Z,58.10
2019-03-10T04:21:10.117Z,58.00
2019-03-10T04:22:46.581Z,58.10
2019-03-10T04:24:21.956Z,58.00
2019-03-10T04:25:57.343Z,57.90
2019-03-10T04:27:32.725Z,58.00
2019-03-10T04:29:08.105Z,57.90
2019-03-10T04:30:43.482Z,58.00
2019-03-10T04:32:18.876Z,57.90
2019-03-10T04:33:55.324Z,58.50
2019-03-10T04:35:30.716Z,57.90
2019-03-10T04:37:06.102Z,57.90
2019-03-10T04:38:41.484Z,58.00
2019-03-10T04:40:16.862Z,57.90
2019-03-10T04:41:52.240Z,57.90
2019-03-10T04:43:27.619Z,57.90
2019-03-10T04:45:03.073Z,57.90
2019-03-10T04:46:38.463Z,58.40
2019-03-10T04:48:13.845Z,57.90
2019-03-10T04:49:49.226Z,57.90
2019-03-10T04:51:24.605Z,57.90
2019-03-10T04:53:01.065Z,57.80
2019-03-10T04:54:44.637Z,57.90
2019-03-10T04:56:27.815Z,57.90
2019-03-10T04:58:07.845Z,57.80
2019-03-10T04:59:43.222Z,57.80
2019-03-10T05:01:18.769Z,57.80
2019-03-10T05:02:54.167Z,57.80
2019-03-10T05:04:31.490Z,57.80
2019-03-10T05:06:06.605Z,57.70
2019-03-10T05:07:41.989Z,57.80
2019-03-10T05:09:17.381Z,57.70
2019-03-10T05:10:52.752Z,57.70
2019-03-10T05:12:28.133Z,57.60
2019-03-10T05:14:03.514Z,57.70
2019-03-10T05:15:38.897Z,57.50
2019-03-10T05:17:14.281Z,57.50
2019-03-10T05:18:49.659Z,57.50
2019-03-10T05:20:25.354Z,57.40
2019-03-10T05:22:01.105Z,57.40
2019-03-10T05:23:42.528Z,57.30
2019-03-10T05:25:22.416Z,57.30
2019-03-10T05:26:57.810Z,57.20
2019-03-10T05:28:37.461Z,57.20
2019-03-10T05:30:13.238Z,57.10
2019-03-10T05:31:48.985Z,57.10
2019-03-10T05:33:24.366Z,57.10
2019-03-10T05:34:59.743Z,57.10
2019-03-10T05:36:35.121Z,57.10
2019-03-10T05:38:10.836Z,57.00
2019-03-10T05:39:46.287Z,57.10
2019-03-10T05:41:21.659Z,57.00
2019-03-10T05:42:57.045Z,56.90
2019-03-10T05:44:33.155Z,57.00
2019-03-10T05:46:08.535Z,57.10
2019-03-10T05:47:43.926Z,57.00
2019-03-10T05:49:20.366Z,57.00
2019-03-10T05:50:56.067Z,56.50
2019-03-10T05:52:31.456Z,56.90
2019-03-10T05:54:06.833Z,57.00
2019-03-10T05:55:42.199Z,57.00
2019-03-10T05:57:17.592Z,57.00
2019-03-10T05:58:52.969Z,57.00
2019-03-10T06:00:28.350Z,56.90
2019-03-10T06:02:03.731Z,57.00
2019-03-10T06:03:39.125Z,56.90
2019-03-10T06:05:14.800Z,57.00
2019-03-10T06:06:50.547Z,57.00
2019-03-10T06:08:26.281Z,57.00
2019-03-10T06:10:01.671Z,57.10
2019-03-10T06:11:37.052Z,57.00
2019-03-10T06:13:12.433Z,57.00
2019-03-10T06:14:47.963Z,57.00
2019-03-10T06:16:23.411Z,57.00
2019-03-10T06:17:58.805Z,57.00
2019-03-10T06:19:35.056Z,57.00
2019-03-10T06:21:10.442Z,57.10
2019-03-10T06:22:45.828Z,57.00
2019-03-10T06:24:21.478Z,57.00
2019-03-10T06:25:56.859Z,57.00
2019-03-10T06:27:33.478Z,57.00
2019-03-10T06:29:08.856Z,57.10
2019-03-10T06:30:44.230Z,57.10
2019-03-10T06:32:19.634Z,57.10
2019-03-10T06:33:55.015Z,57.10
2019-03-10T06:35:30.392Z,57.10
2019-03-10T06:37:05.773Z,57.10
2019-03-10T06:38:41.181Z,57.00
2019-03-10T06:40:16.541Z,57.00
2019-03-10T06:41:52.992Z,57.00
2019-03-10T06:43:28.376Z,57.10
2019-03-10T06:45:04.582Z,57.00
2019-03-10T06:46:39.960Z,56.90
2019-03-10T06:48:15.340Z,56.90
2019-03-10T06:49:50.716Z,57.00
2019-03-10T06:51:26.097Z,56.90
2019-03-10T06:53:01.490Z,57.00
2019-03-10T06:54:37.398Z,57.00
2019-03-10T06:56:12.787Z,57.10
2019-03-10T06:57:48.166Z,57.00
2019-03-10T06:59:23.537Z,57.00
2019-03-10T07:00:58.916Z,57.00
2019-03-10T07:02:34.298Z,57.00
2019-03-10T07:04:09.693Z,57.10
2019-03-10T07:05:45.067Z,57.00
2019-03-10T07:07:20.441Z,57.00
2019-03-10T07:08:55.847Z,57.00
2019-03-10T07:10:31.208Z,57.00
2019-03-10T07:12:06.599Z,57.10
2019-03-10T07:13:41.981Z,57.10
2019-03-10T07:15:17.362Z,57.20
2019-03-10T07:16:53.003Z,57.20
2019-03-10T07:18:28.387Z,57.30
2019-03-10T07:20:05.155Z,57.30
2019-03-10T07:21:40.775Z,57.40
2019-03-10T07:23:17.533Z,57.50
2019-03-10T07:24:52.898Z,57.40
2019-03-10T07:26:28.273Z,57.40
2019-03-10T07:28:17.442Z,57.50
2019-03-10T07:29:54.462Z,57.50
2019-03-10T07:31:43.523Z,57.40
2019-03-10T07:33:23.362Z,57.50
2019-03-10T07:35:06.316Z,57.40
2019-03-10T07:36:47.254Z,57.40
2019-03-10T07:38:36.462Z,57.40
2019-03-10T07:40:28.263Z,57.40
2019-03-10T07:42:23.137Z,57.40
2019-03-10T07:44:05.717Z,57.40
2019-03-10T07:45:49.028Z,57.40
2019-03-10T07:47:37.971Z,57.30
2019-03-10T07:49:20.598Z,57.60
2019-03-10T07:51:00.381Z,57.30
2019-03-10T07:52:49.529Z,57.30
2019-03-10T07:54:38.735Z,57.40
2019-03-10T07:56:16.037Z,57.40
2019-03-10T07:58:02.579Z,57.40
2019-03-10T07:59:45.027Z,57.30
2019-03-10T08:01:22.042Z,57.40
2019-03-10T08:03:14.226Z,57.40
2019-03-10T08:04:54.160Z,57.50
2019-03-10T08:06:34.171Z,57.50
2019-03-10T08:08:14.271Z,57.70
2019-03-10T08:09:51.298Z,57.70
2019-03-10T08:11:31.239Z,57.90
2019-03-10T08:13:14.045Z,58.00
2019-03-10T08:14:54.013Z,58.10
2019-03-10T08:16:34.108Z,58.10
2019-03-10T08:18:11.132Z,58.40
2019-03-10T08:19:48.149Z,58.60
2019-03-10T08:21:34.649Z,58.50
2019-03-10T08:23:11.646Z,59.30
2019-03-10T08:24:48.662Z,58.70
2019-03-10T08:26:37.414Z,58.90
2019-03-10T08:28:23.265Z,59.00
2019-03-10T08:30:06.236Z,59.10
2019-03-10T08:31:59.647Z,59.20
2019-03-10T08:33:48.962Z,59.40
2019-03-10T08:35:25.997Z,59.50
2019-03-10T08:37:12.267Z,59.50
2019-03-10T08:38:49.299Z,59.50
2019-03-10T08:40:35.279Z,59.60
2019-03-10T08:42:20.479Z,59.80
2019-03-10T08:44:12.755Z,59.90
2019-03-10T08:45:52.314Z,59.90
2019-03-10T08:47:29.333Z,59.90
2019-03-10T08:49:06.359Z,59.90
2019-03-10T08:50:49.301Z,60.10
2019-03-10T08:52:35.137Z,60.20
2019-03-10T08:54:12.159Z,60.20
2019-03-10T08:55:58.030Z,60.30
2019-03-10T08:57:51.150Z,60.30
2019-03-10T08:59:37.158Z,60.20
2019-03-10T09:01:14.169Z,59.80
2019-03-10T09:03:03.471Z,59.80
2019-03-10T09:04:55.643Z,59.80
2019-03-10T09:06:48.657Z,59.70
2019-03-10T09:08:25.671Z,59.90
2019-03-10T09:10:17.897Z,60.10
2019-03-10T09:11:54.914Z,60.30
2019-03-10T09:13:31.929Z,60.50
2019-03-10T09:15:26.167Z,60.50
2019-03-10T09:17:03.258Z,60.70
2019-03-10T09:18:48.933Z,60.50
2019-03-10T09:20:42.087Z,60.50
2019-03-10T09:22:22.147Z,60.60
2019-03-10T09:23:59.165Z,60.60
2019-03-10T09:25:36.195Z,60.70
2019-03-10T09:27:13.228Z,60.60
2019-03-10T09:28:50.249Z,60.70
2019-03-10T09:30:43.630Z,60.60
2019-03-10T09:32:20.659Z,60.60
2019-03-10T09:34:03.615Z,60.40
2019-03-10T09:35:49.760Z,60.50
2019-03-10T09:37:43.073Z,60.60
2019-03-10T09:39:32.105Z,60.50
2019-03-10T09:41:18.043Z,60.50
2019-03-10T09:43:10.073Z,60.60
2019-03-10T09:44:47.113Z,60.60
2019-03-10T09:46:40.190Z,60.70
2019-03-10T09:48:20.459Z,60.80
2019-03-10T09:50:03.366Z,61.00
2019-03-10T09:51:43.048Z,61.00
2019-03-10T09:53:29.522Z,61.00
2019-03-10T09:55:23.791Z,61.00
2019-03-10T09:57:19.071Z,61.00
2019-03-10T09:58:58.848Z,61.00
2019-03-10T10:00:41.901Z,60.90
2019-03-10T10:02:37.157Z,61.10
2019-03-10T10:04:24.275Z,61.00
2019-03-10T10:06:01.314Z,61.10
2019-03-10T10:07:50.990Z,61.30
2019-03-10T10:09:33.963Z,61.40
2019-03-10T10:11:17.178Z,61.40
2019-03-10T10:13:03.505Z,61.50
2019-03-10T10:14:49.477Z,61.40
2019-03-10T10:16:29.447Z,61.20
2019-03-10T10:18:18.419Z,61.00
2019-03-10T10:20:10.599Z,61.00
2019-03-10T10:21:56.341Z,61.00
2019-03-10T10:23:33.365Z,61.00
2019-03-10T10:25:19.468Z,61.00
2019-03-10T10:26:59.918Z,61.10
2019-03-10T10:28:42.963Z,61.10
2019-03-10T10:30:35.023Z,61.10
2019-03-10T10:32:20.641Z,61.10
2019-03-10T10:34:13.884Z,60.90
2019-03-10T10:35:50.904Z,60.90
2019-03-10T10:37:30.840Z,61.00
2019-03-10T10:39:18.993Z,61.10
2019-03-10T10:40:56.019Z,61.20
2019-03-10T10:42:51.009Z,61.20
2019-03-10T10:44:30.512Z,61.30
2019-03-10T10:46:19.369Z,61.40
2019-03-10T10:47:56.387Z,61.40
2019-03-10T10:49:49.664Z,61.20
2019-03-10T10:51:32.746Z,61.20
2019-03-10T10:53:26.060Z,61.30
2019-03-10T10:55:03.155Z,61.40
2019-03-10T10:56:48.793Z,61.60
2019-03-10T10:58:43.893Z,61.80
2019-03-10T11:00:23.620Z,61.90
2019-03-10T11:02:03.531Z,62.10
2019-03-10T11:03:46.655Z,62.10
2019-03-10T11:05:40.633Z,62.10
2019-03-10T11:07:18.001Z,62.10
2019-03-10T11:09:12.999Z,62.10
2019-03-10T11:11:08.153Z,62.40
2019-03-10T11:12:47.861Z,62.40
2019-03-10T11:14:24.883Z,62.60
2019-03-10T11:16:01.909Z,62.90
2019-03-10T11:17:38.927Z,63.00
2019-03-10T11:19:30.883Z,63.20
2019-03-10T11:21:07.981Z,63.10
2019-03-10T11:22:50.754Z,63.10
2019-03-10T11:24:27.783Z,63.30
2019-03-10T11:26:10.742Z,63.30
2019-03-10T11:27:59.912Z,63.20
2019-03-10T11:29:42.897Z,63.20
2019-03-10T11:31:25.659Z,63.10
2019-03-10T11:33:18.760Z,63.10
2019-03-10T11:35:02.111Z,63.10
2019-03-10T11:36:39.145Z,63.10
2019-03-10T11:38:34.263Z,63.30
2019-03-10T11:40:15.159Z,63.40
2019-03-10T11:41:52.188Z,63.30
2019-03-10T11:43:32.050Z,63.40
2019-03-10T11:45:23.437Z,63.50
2019-03-10T11:47:00.462Z,63.70
2019-03-10T11:48:40.431Z,63.70
2019-03-10T11:50:20.301Z,63.90
2019-03-10T11:51:57.331Z,64.10
2019-03-10T11:53:40.018Z,64.30
2019-03-10T11:55:33.190Z,64.50
2019-03-10T11:57:22.259Z,64.40
2019-03-10T11:59:07.978Z,64.60
2019-03-10T12:00:47.970Z,64.70
2019-03-10T12:02:41.152Z,64.70
2019-03-10T12:04:18.173Z,65.20
2019-03-10T12:05:58.012Z,65.20
2019-03-10T12:07:46.924Z,65.40
2019-03-10T12:09:21.510Z,66.00
2019-03-10T12:10:56.921Z,66.00
2019-03-10T12:12:32.295Z,66.30
2019-03-10T12:14:07.674Z,66.40
2019-03-10T12:15:43.048Z,66.40
2019-03-10T12:17:18.445Z,66.50
2019-03-10T12:18:53.828Z,66.50
2019-03-10T12:20:29.201Z,66.40
2019-03-10T12:22:04.586Z,66.70
2019-03-10T12:23:39.957Z,67.40
2019-03-10T12:25:15.654Z,67.40
2019-03-10T12:26:51.720Z,67.30
2019-03-10T12:28:27.332Z,67.50
2019-03-10T12:30:02.724Z,67.90
2019-03-10T12:31:38.098Z,68.00
2019-03-10T12:33:13.471Z,67.80
2019-03-10T12:34:48.923Z,67.70
2019-03-10T12:36:24.309Z,68.00
2019-03-10T12:37:59.678Z,68.10
2019-03-10T12:39:35.308Z,68.20
2019-03-10T12:41:10.702Z,68.40
2019-03-10T12:42:46.081Z,68.40
2019-03-10T12:44:21.456Z,68.30
2019-03-10T12:45:57.099Z,68.70
2019-03-10T12:47:32.789Z,68.70
2019-03-10T12:49:08.164Z,68.70
2019-03-10T12:50:43.544Z,68.80
2019-03-10T12:52:18.917Z,68.70
2019-03-10T12:53:54.291Z,68.70
2019-03-10T12:55:29.672Z,68.70
2019-03-10T12:57:05.074Z,68.60
2019-03-10T12:58:40.445Z,68.50
2019-03-10T13:00:18.812Z,68.60
2019-03-10T13:01:54.194Z,68.70
2019-03-10T13:03:29.639Z,68.80
2019-03-10T13:05:07.483Z,69.20
2019-03-10T13:06:42.899Z,69.10
2019-03-10T13:08:18.282Z,68.90
2019-03-10T13:09:53.678Z,69.00
2019-03-10T13:11:29.589Z,69.00
2019-03-10T13:13:04.964Z,68.90
2019-03-10T13:14:40.332Z,68.90
2019-03-10T13:16:15.717Z,68.60
2019-03-10T13:17:51.097Z,68.50
2019-03-10T13:19:26.479Z,68.60
2019-03-10T13:21:01.860Z,68.50
2019-03-10T13:22:37.255Z,68.60
2019-03-10T13:24:12.630Z,68.40
2019-03-10T13:25:48.294Z,68.30
2019-03-10T13:27:23.685Z,68.00
2019-03-10T13:28:59.053Z,67.80
2019-03-10T13:30:34.423Z,67.60
2019-03-10T13:32:09.809Z,67.50
2019-03-10T13:33:45.185Z,67.70
2019-03-10T13:35:20.569Z,67.80
2019-03-10T13:36:56.202Z,68.10
2019-03-10T13:38:31.594Z,68.20
2019-03-10T13:40:13.649Z,68.30
2019-03-10T13:41:49.032Z,68.20
2019-03-10T13:43:24.410Z,68.30
2019-03-10T13:44:59.780Z,68.30
2019-03-10T13:46:35.165Z,68.20
2019-03-10T13:48:10.554Z,68.30
2019-03-10T13:49:45.920Z,68.20
2019-03-10T13:51:21.301Z,68.10
2019-03-10T13:52:56.681Z,68.00
2019-03-10T13:54:32.499Z,67.90
2019-03-10T13:56:07.875Z,67.90
2019-03-10T13:57:43.265Z,67.90
2019-03-10T13:59:18.635Z,67.80
2019-03-10T14:00:54.009Z,67.60
2019-03-10T14:02:29.403Z,67.40
2019-03-10T14:04:04.770Z,67.20
2019-03-10T14:05:40.394Z,67.10
2019-03-10T14:07:16.107Z,67.10
2019-03-10T14:08:51.489Z,67.10
2019-03-10T14:10:26.869Z,67.00
2019-03-10T14:12:02.251Z,67.10
2019-03-10T14:13:38.499Z,67.00
2019-03-10T14:15:15.882Z,67.10
2019-03-10T14:16:51.596Z,67.00
2019-03-10T14:18:26.981Z,66.90
2019-03-10T14:20:02.676Z,66.70
2019-03-10T14:21:38.127Z,66.70
2019-03-10T14:23:13.515Z,66.60
2019-03-10T14:24:48.894Z,66.50
2019-03-10T14:26:24.336Z,66.50
2019-03-10T14:27:59.729Z,66.50
2019-03-10T14:29:35.099Z,67.20
2019-03-10T14:31:10.471Z,66.40
2019-03-10T14:32:46.026Z,66.30
2019-03-10T14:34:21.399Z,66.30
2019-03-10T14:35:56.782Z,66.20
2019-03-10T14:37:32.175Z,66.40
2019-03-10T14:39:08.691Z,66.60
2019-03-10T14:40:45.352Z,66.90
2019-03-10T14:42:20.734Z,67.10
2019-03-10T14:43:56.115Z,67.50
2019-03-10T14:45:31.556Z,67.80
2019-03-10T14:47:06.982Z,67.90
2019-03-10T14:48:42.387Z,68.00
2019-03-10T14:50:19.462Z,68.40
2019-03-10T14:51:54.841Z,68.50
2019-03-10T14:53:30.227Z,68.60
2019-03-10T14:55:10.154Z,68.80
2019-03-10T14:56:45.529Z,69.20
2019-03-10T14:58:20.920Z,69.30
2019-03-10T14:59:56.302Z,69.50
2019-03-10T15:01:31.720Z,69.30
2019-03-10T15:03:07.102Z,69.50
2019-03-10T15:04:42.746Z,69.50
2019-03-10T15:06:18.116Z,69.40
2019-03-10T15:07:53.523Z,69.10
2019-03-10T15:09:28.902Z,69.00
2019-03-10T15:11:04.279Z,69.00
2019-03-10T15:12:39.679Z,68.80
2019-03-10T15:14:15.058Z,68.80
2019-03-10T15:15:50.437Z,68.90
2019-03-10T15:17:26.765Z,68.80
2019-03-10T15:19:02.388Z,68.50
2019-03-10T15:20:37.771Z,68.10
2019-03-10T15:22:13.152Z,67.80
2019-03-10T15:23:48.536Z,67.50
2019-03-10T15:25:25.441Z,67.50
2019-03-10T15:27:00.863Z,67.30
2019-03-10T15:28:36.413Z,67.10
2019-03-10T15:30:17.397Z,67.10
2019-03-10T15:31:52.773Z,67.20
2019-03-10T15:33:28.157Z,67.30
2019-03-10T15:35:03.794Z,67.30
2019-03-10T15:36:39.296Z,67.50
2019-03-10T15:38:15.177Z,67.30
2019-03-10T15:39:50.702Z,67.30
2019-03-10T15:41:26.189Z,67.40
2019-03-10T15:43:01.704Z,67.30
2019-03-10T15:44:37.406Z,67.30
2019-03-10T15:46:12.768Z,67.30
2019-03-10T15:47:48.419Z,67.10
2019-03-10T15:49:23.806Z,67.10
2019-03-10T15:50:59.181Z,67.00
2019-03-10T15:52:34.554Z,67.10
2019-03-10T15:54:09.940Z,67.10
2019-03-10T15:55:46.562Z,67.10
2019-03-10T15:57:21.946Z,67.10
2019-03-10T15:58:57.338Z,67.00
2019-03-10T16:00:32.762Z,67.00
2019-03-10T16:02:08.170Z,67.00
2019-03-10T16:03:43.555Z,67.00
2019-03-10T16:05:18.928Z,66.90
2019-03-10T16:06:54.315Z,66.80
2019-03-10T16:08:29.941Z,66.90
2019-03-10T16:10:11.632Z,66.80
2019-03-10T16:11:47.010Z,66.90
2019-03-10T16:13:22.388Z,66.80
2019-03-10T16:14:57.862Z,66.80
2019-03-10T16:16:33.255Z,66.80
2019-03-10T16:18:09.570Z,66.80
2019-03-10T16:19:44.947Z,66.70
2019-03-10T16:21:20.575Z,66.80
2019-03-10T16:22:55.956Z,66.90
2019-03-10T16:24:31.330Z,66.80
2019-03-10T16:26:06.708Z,66.90
2019-03-10T16:27:42.085Z,67.00
2019-03-10T16:29:17.475Z,67.30
2019-03-10T16:30:53.108Z,67.40
2019-03-10T16:32:28.484Z,67.60
2019-03-10T16:34:03.870Z,67.30
2019-03-10T16:35:39.801Z,67.20
2019-03-10T16:37:15.243Z,67.30
2019-03-10T16:38:50.561Z,67.40
2019-03-10T16:40:25.928Z,67.50
2019-03-10T16:42:01.302Z,67.60
2019-03-10T16:43:36.693Z,67.70
2019-03-10T16:45:23.860Z,67.50
2019-03-10T16:46:59.234Z,67.70
2019-03-10T16:48:34.640Z,67.70
2019-03-10T16:50:17.156Z,67.80
2019-03-10T16:51:52.534Z,67.90
2019-03-10T16:53:27.920Z,67.90
2019-03-10T16:55:03.310Z,68.70
2019-03-10T16:56:38.711Z,68.10
2019-03-10T16:58:14.096Z,68.10
2019-03-10T16:59:49.833Z,68.10
2019-03-10T17:01:25.213Z,68.10
2019-03-10T17:03:00.598Z,68.10
2019-03-10T17:04:35.988Z,68.10
2019-03-10T17:06:12.271Z,68.20
2019-03-10T17:07:47.780Z,68.20
2019-03-10T17:09:24.139Z,68.20
2019-03-10T17:10:59.515Z,68.30
2019-03-10T17:12:34.885Z,68.40
2019-03-10T17:14:10.279Z,68.60
2019-03-10T17:15:45.902Z,68.80
2019-03-10T17:17:21.286Z,68.90
2019-03-10T17:18:56.653Z,68.60
2019-03-10T17:20:32.039Z,68.70
2019-03-10T17:22:07.408Z,68.80
2019-03-10T17:23:43.453Z,69.50
2019-03-10T17:25:19.124Z,68.60
2019-03-10T17:26:54.484Z,68.10
2019-03-10T17:28:29.902Z,67.40
2019-03-10T17:30:20.038Z,67.00
2019-03-10T17:31:55.410Z,66.30
2019-03-10T17:33:30.792Z,65.60
2019-03-10T17:35:07.285Z,65.20
2019-03-10T17:36:43.598Z,65.70
2019-03-10T17:38:19.233Z,64.40
2019-03-10T17:39:54.602Z,64.10
2019-03-10T17:41:29.978Z,63.90
2019-03-10T17:43:07.897Z,63.50
2019-03-10T17:44:42.688Z,63.40
2019-03-10T17:46:18.068Z,63.50
2019-03-10T17:47:53.449Z,63.20
2019-03-10T17:49:28.835Z,63.00
2019-03-10T17:51:04.299Z,62.90
2019-03-10T17:52:39.942Z,63.00
2019-03-10T17:54:15.316Z,63.00
2019-03-10T17:55:50.699Z,62.90
2019-03-10T17:57:26.065Z,62.80
2019-03-10T17:59:01.553Z,62.80
2019-03-10T18:00:37.892Z,62.80
2019-03-10T18:02:14.393Z,62.80
2019-03-10T18:03:49.777Z,62.80
2019-03-10T18:05:25.167Z,62.80
2019-03-10T18:07:00.546Z,62.80
2019-03-10T18:08:36.179Z,62.90
2019-03-10T18:10:16.571Z,62.80
2019-03-10T18:11:51.968Z,62.90
2019-03-10T18:13:28.305Z,62.80
2019-03-10T18:15:08.439Z,62.70
2019-03-10T18:16:41.708Z,62.40
2019-03-10T18:18:17.093Z,62.10
2019-03-10T18:19:52.718Z,61.90
2019-03-10T18:21:28.335Z,61.50
2019-03-10T18:23:03.782Z,61.50
2019-03-10T18:24:39.154Z,61.50
2019-03-10T18:26:16.942Z,61.50
2019-03-10T18:27:52.334Z,61.40
2019-03-10T18:29:27.721Z,61.40
2019-03-10T18:31:03.119Z,61.30
2019-03-10T18:32:38.491Z,61.30
2019-03-10T18:34:13.893Z,61.30
2019-03-10T18:35:49.288Z,61.10
2019-03-10T18:37:24.664Z,60.80
2019-03-10T18:39:00.047Z,59.80
2019-03-10T18:40:35.435Z,58.80
2019-03-10T18:42:10.816Z,58.00
2019-03-10T18:43:46.517Z,57.40
2019-03-10T18:45:22.143Z,56.90
2019-03-10T18:46:57.794Z,56.20
2019-03-10T18:48:33.177Z,55.70
2019-03-10T18:50:12.884Z,55.10
2019-03-10T18:51:48.521Z,54.30
2019-03-10T18:53:23.877Z,53.70
2019-03-10T18:54:59.276Z,53.60
2019-03-10T18:56:34.925Z,52.70
2019-03-10T18:58:10.303Z,52.70
2019-03-10T18:59:45.686Z,52.10
2019-03-10T19:01:21.207Z,51.20
2019-03-10T19:02:56.834Z,51.80
2019-03-10T19:04:32.453Z,51.60
2019-03-10T19:06:07.840Z,51.50
2019-03-10T19:07:43.219Z,51.00
2019-03-10T19:09:18.626Z,50.80
2019-03-10T19:10:54.010Z,50.60
2019-03-10T19:12:29.399Z,50.30
2019-03-10T19:14:04.785Z,50.20
2019-03-10T19:15:40.208Z,50.10
2019-03-10T19:17:15.564Z,50.20
2019-03-10T19:18:51.208Z,50.20
2019-03-10T19:20:26.685Z,50.30
2019-03-10T19:22:02.068Z,49.80
2019-03-10T19:23:37.437Z,49.80
2019-03-10T19:25:15.329Z,49.70
2019-03-10T19:26:50.979Z,49.80
2019-03-10T19:28:26.361Z,50.60
2019-03-10T19:30:01.749Z,49.70
2019-03-10T19:31:37.196Z,49.60
2019-03-10T19:33:12.643Z,49.80
2019-03-10T19:34:48.504Z,49.80
2019-03-10T19:36:23.892Z,49.50
2019-03-10T19:37:59.267Z,49.70
2019-03-10T19:39:34.639Z,49.90
2019-03-10T19:41:10.027Z,50.00
2019-03-10T19:42:45.466Z,50.00
2019-03-10T19:44:21.300Z,50.00
2019-03-10T19:45:56.783Z,50.00
2019-03-10T19:47:32.158Z,50.00
2019-03-10T19:49:07.777Z,49.90
2019-03-10T19:50:43.427Z,49.50
2019-03-10T19:52:19.565Z,49.20
2019-03-10T19:53:55.200Z,48.80
2019-03-10T19:55:30.592Z,48.30
2019-03-10T19:57:05.979Z,48.10
2019-03-10T19:58:41.351Z,47.90
2019-03-10T20:00:18.997Z,47.60
2019-03-10T20:01:54.407Z,47.70
2019-03-10T20:03:29.758Z,47.70
2019-03-10T20:05:07.947Z,47.80
2019-03-10T20:06:43.339Z,48.00
2019-03-10T20:08:18.719Z,48.20
2019-03-10T20:09:54.098Z,48.30
2019-03-10T20:11:29.491Z,48.50
2019-03-10T20:13:04.933Z,48.50
2019-03-10T20:14:40.302Z,48.80
2019-03-10T20:16:15.691Z,48.80
2019-03-10T20:17:51.389Z,48.80
2019-03-10T20:19:26.767Z,48.80
2019-03-10T20:21:02.156Z,48.80
2019-03-10T20:22:37.628Z,48.80
2019-03-10T20:24:13.001Z,48.80
2019-03-10T20:25:48.384Z,48.10
2019-03-10T20:27:23.762Z,47.90
2019-03-10T20:28:59.145Z,48.10
2019-03-10T20:30:34.523Z,47.30
2019-03-10T20:32:13.993Z,46.80
2019-03-10T20:33:46.995Z,46.80
2019-03-10T20:35:22.371Z,47.10
2019-03-10T20:36:57.805Z,47.10
2019-03-10T20:38:33.229Z,46.70
2019-03-10T20:40:23.148Z,46.60
2019-03-10T20:42:05.201Z,46.30
2019-03-10T20:43:36.826Z,46.60
2019-03-10T20:45:12.413Z,46.40
2019-03-10T20:46:47.796Z,46.30
2019-03-10T20:48:23.173Z,46.30
2019-03-10T20:49:58.591Z,46.40
2019-03-10T20:51:33.975Z,47.00
2019-03-10T20:53:09.610Z,47.60
2019-03-10T20:54:45.258Z,48.40
2019-03-10T20:56:20.646Z,49.10
2019-03-10T20:57:56.025Z,49.80
2019-03-10T20:59:31.472Z,50.40
2019-03-10T21:01:07.001Z,50.60